createdAt,value
2023-05-01T00:02:12.827Z,11.50
2023-05-01T00:04:41.908Z,6.03
2023-05-01T00:07:09.608Z,6.93
2023-05-01T00:09:37.272Z,9.02
2023-05-01T00:12:06.024Z,7.93
2023-05-01T00:14:33.660Z,6.47
2023-05-01T00:17:01.494Z,8.38
2023-05-01T00:19:29.362Z,8.68
2023-05-01T00:21:59.180Z,8.90
2023-05-01T00:24:27.550Z,7.70
2023-05-01T00:26:55.197Z,10.13
2023-05-01T00:29:22.813Z,6.75
2023-05-01T00:31:50.520Z,6.35
2023-05-01T00:34:18.234Z,9.02
2023-05-01T00:36:47.049Z,6.47
2023-05-01T00:39:17.840Z,9.07
2023-05-01T00:41:45.536Z,5.95
2023-05-01T00:44:13.152Z,6.93
2023-05-01T00:46:40.929Z,7.68
2023-05-01T00:49:08.589Z,6.78
2023-05-01T00:51:36.721Z,8.20
2023-05-01T00:54:04.456Z,8.18
2023-05-01T00:56:34.178Z,7.38
2023-05-01T00:59:01.959Z,6.47
2023-05-01T01:01:30.424Z,6.68
2023-05-01T01:03:59.540Z,7.35
2023-05-01T01:06:32.300Z,9.13
2023-05-01T01:09:08.057Z,10.52
2023-05-01T01:11:41.957Z,7.28
2023-05-01T01:14:12.819Z,8.15
2023-05-01T01:16:43.528Z,8.25
2023-05-01T01:19:20.135Z,9.35
2023-05-01T01:21:50.951Z,8.80
2023-05-01T01:24:26.169Z,7.70
2023-05-01T01:27:11.093Z,11.95
2023-05-01T01:29:49.316Z,10.95
2023-05-01T01:32:31.701Z,10.70
2023-05-01T01:35:02.930Z,8.48
2023-05-01T01:37:34.046Z,9.85
2023-05-01T01:40:04.021Z,9.68
2023-05-01T01:42:34.653Z,8.52
2023-05-01T01:45:05.065Z,9.98
2023-05-01T01:47:34.200Z,9.93
2023-05-01T01:50:05.270Z,6.30
2023-05-01T01:52:34.444Z,4.38
2023-05-01T01:55:06.522Z,8.25
2023-05-01T01:57:35.931Z,6.90
2023-05-01T02:00:08.932Z,9.85
2023-05-01T02:02:37.726Z,7.10
2023-05-01T02:05:08.318Z,9.30
2023-05-01T02:07:36.672Z,8.23
2023-05-01T02:10:05.503Z,9.23
2023-05-01T02:12:33.549Z,11.07
2023-05-01T02:15:01.848Z,7.95
2023-05-01T02:17:29.873Z,9.43
2023-05-01T02:19:58.384Z,13.13
2023-05-01T02:22:27.899Z,10.18
2023-05-01T02:24:55.711Z,11.68
2023-05-01T02:27:27.661Z,10.65
2023-05-01T02:29:55.511Z,10.07
2023-05-01T02:32:23.298Z,9.00
2023-05-01T02:34:51.271Z,8.43
2023-05-01T02:37:19.121Z,9.57
2023-05-01T02:39:48.794Z,9.68
2023-05-01T02:42:17.694Z,10.40
2023-05-01T02:44:48.240Z,9.48
2023-05-01T02:47:18.049Z,9.07
2023-05-01T02:49:48.175Z,9.77
2023-05-01T02:52:17.000Z,9.98
2023-05-01T02:54:45.416Z,9.18
2023-05-01T02:57:14.554Z,9.27
2023-05-01T02:59:42.476Z,7.20
2023-05-01T03:02:10.241Z,10.57
2023-05-01T03:04:37.981Z,12.82
2023-05-01T03:07:05.792Z,9.00
2023-05-01T03:09:33.430Z,8.65
2023-05-01T03:12:01.050Z,11.20
2023-05-01T03:14:30.069Z,12.52
2023-05-01T03:16:58.364Z,9.82
2023-05-01T03:19:27.171Z,7.90
2023-05-01T03:21:54.836Z,13.40
2023-05-01T03:24:22.469Z,9.60
2023-05-01T03:26:50.124Z,10.30
2023-05-01T03:29:17.736Z,10.55
2023-05-01T03:31:46.752Z,12.18
2023-05-01T03:34:14.449Z,9.70
2023-05-01T03:36:42.050Z,8.60
2023-05-01T03:39:09.784Z,9.32
2023-05-01T03:41:37.444Z,6.80
2023-05-01T03:44:05.878Z,8.82
2023-05-01T03:46:33.661Z,9.95
2023-05-01T03:49:02.949Z,8.32
2023-05-01T03:51:30.569Z,8.20
2023-05-01T03:53:58.932Z,9.30
2023-05-01T03:56:26.925Z,11.45
2023-05-01T03:58:54.764Z,8.10
2023-05-01T04:01:22.586Z,12.35
2023-05-01T04:03:50.331Z,11.40
2023-05-01T04:06:19.617Z,9.65
2023-05-01T04:08:47.319Z,13.05
2023-05-01T04:11:14.964Z,11.38
2023-05-01T04:13:42.574Z,8.32
2023-05-01T04:16:10.482Z,8.90
2023-05-01T04:18:38.881Z,7.65
2023-05-01T04:21:06.992Z,10.15
2023-05-01T04:23:36.060Z,9.63
2023-05-01T04:26:04.109Z,10.27
2023-05-01T04:28:32.049Z,8.45
2023-05-01T04:30:59.702Z,9.77
2023-05-01T04:33:28.412Z,8.25
2023-05-01T04:35:56.083Z,12.13
2023-05-01T04:38:23.737Z,12.65
2023-05-01T04:40:52.958Z,9.30
2023-05-01T04:43:20.701Z,12.20
2023-05-01T04:45:48.878Z,11.93
2023-05-01T04:48:16.856Z,11.95
2023-05-01T04:50:44.547Z,12.48
2023-05-01T04:53:12.199Z,11.93
2023-05-01T04:55:39.871Z,14.20
2023-05-01T04:58:08.912Z,13.38
2023-05-01T05:00:37.001Z,12.73
2023-05-01T05:03:05.887Z,13.77
2023-05-01T05:05:34.125Z,17.95
2023-05-01T05:08:02.450Z,14.02
2023-05-01T05:10:30.159Z,11.77
2023-05-01T05:12:57.972Z,13.93
2023-05-01T05:15:27.031Z,11.10
2023-05-01T05:17:56.473Z,14.85
2023-05-01T05:20:24.514Z,15.05
2023-05-01T05:22:52.329Z,18.42
2023-05-01T05:25:20.257Z,15.77
2023-05-01T05:27:47.884Z,15.68
2023-05-01T05:30:15.541Z,21.05
2023-05-01T05:32:45.112Z,17.80
2023-05-01T05:35:12.840Z,21.38
2023-05-01T05:37:40.563Z,31.27
2023-05-01T05:40:09.282Z,27.52
2023-05-01T05:42:37.740Z,27.02
2023-05-01T05:45:05.923Z,25.67
2023-05-01T05:47:34.148Z,22.45
2023-05-01T05:50:04.099Z,28.50
2023-05-01T05:52:33.346Z,32.08
2023-05-01T05:55:01.128Z,38.78
2023-05-01T05:57:28.843Z,34.60
2023-05-01T05:59:57.738Z,39.00
2023-05-01T06:02:25.913Z,38.20
2023-05-01T06:04:53.660Z,37.88
2023-05-01T06:07:24.291Z,34.63
2023-05-01T06:09:52.088Z,36.50
2023-05-01T06:12:19.888Z,37.10
2023-05-01T06:14:47.739Z,35.85
2023-05-01T06:17:15.464Z,34.45
2023-05-01T06:19:43.778Z,29.80
2023-05-01T06:22:11.386Z,39.53
2023-05-01T06:24:41.204Z,41.75
2023-05-01T06:27:08.839Z,36.63
2023-05-01T06:29:36.834Z,36.53
2023-05-01T06:32:04.919Z,34.45
2023-05-01T06:34:32.586Z,39.33
2023-05-01T06:37:00.213Z,38.50
2023-05-01T06:39:28.033Z,33.30
2023-05-01T06:41:57.037Z,39.08
2023-05-01T06:44:24.681Z,34.47
2023-05-01T06:46:52.706Z,34.15
2023-05-01T06:49:20.791Z,33.17
2023-05-01T06:51:48.636Z,35.95
2023-05-01T06:54:16.343Z,39.70
2023-05-01T06:56:44.608Z,39.97
2023-05-01T06:59:13.610Z,30.77
2023-05-01T07:01:41.774Z,38.00
2023-05-01T07:04:10.177Z,35.40
2023-05-01T07:06:38.658Z,35.70
2023-05-01T07:09:06.587Z,41.67
2023-05-01T07:11:34.397Z,36.90
2023-05-01T07:14:02.337Z,40.10
2023-05-01T07:16:31.484Z,33.83
2023-05-01T07:18:59.192Z,33.13
2023-05-01T07:21:26.945Z,32.67
2023-05-01T07:23:54.587Z,31.25
2023-05-01T07:26:22.322Z,34.00
2023-05-01T07:28:49.917Z,32.58
2023-05-01T07:31:17.658Z,33.75
2023-05-01T07:33:47.728Z,31.05
2023-05-01T07:36:15.554Z,29.42
2023-05-01T07:38:43.283Z,35.63
2023-05-01T07:41:11.009Z,29.83
2023-05-01T07:43:38.779Z,27.83
2023-05-01T07:46:07.231Z,29.33
2023-05-01T07:48:36.473Z,29.35
2023-05-01T07:51:07.549Z,34.00
2023-05-01T07:53:35.392Z,27.05
2023-05-01T07:56:06.957Z,25.67
2023-05-01T07:58:34.612Z,28.05
2023-05-01T08:01:02.228Z,25.15
2023-05-01T08:03:30.716Z,29.02
2023-05-01T08:05:58.864Z,27.55
2023-05-01T08:08:28.301Z,27.55
2023-05-01T08:10:56.401Z,28.65
2023-05-01T08:13:24.204Z,26.27
2023-05-01T08:15:52.589Z,29.13
2023-05-01T08:18:21.072Z,28.83
2023-05-01T08:20:49.609Z,28.35
2023-05-01T08:23:18.682Z,30.85
2023-05-01T08:25:50.960Z,29.60
2023-05-01T08:28:20.685Z,26.63
2023-05-01T08:30:49.169Z,29.40
2023-05-01T08:33:17.404Z,25.77
2023-05-01T08:35:45.101Z,23.05
2023-05-01T08:38:12.832Z,21.33
2023-05-01T08:40:42.149Z,20.52
2023-05-01T08:43:13.139Z,24.92
2023-05-01T08:45:40.982Z,29.33
2023-05-01T08:48:10.436Z,25.30
2023-05-01T08:50:40.052Z,22.48
2023-05-01T08:53:07.767Z,21.17
2023-05-01T08:55:36.135Z,20.23
2023-05-01T08:58:05.112Z,21.60
2023-05-01T09:00:35.289Z,20.45
2023-05-01T09:03:03.642Z,22.90
2023-05-01T09:05:32.942Z,27.92
2023-05-01T09:08:00.724Z,21.55
2023-05-01T09:10:28.429Z,27.48
2023-05-01T09:16:35.667Z,19.15
2023-05-01T09:19:03.680Z,22.80
2023-05-01T09:21:32.173Z,18.77
2023-05-01T09:24:03.628Z,21.23
2023-05-01T09:26:35.090Z,17.80
2023-05-01T09:29:02.704Z,21.58
2023-05-01T09:31:32.833Z,20.80
2023-05-01T09:34:02.484Z,21.27
2023-05-01T09:36:31.060Z,18.52
2023-05-01T09:39:00.162Z,19.98
2023-05-01T09:41:28.141Z,23.30
2023-05-01T09:43:58.437Z,22.00
2023-05-01T09:46:27.222Z,18.88
2023-05-01T09:48:56.451Z,19.98
2023-05-01T09:51:27.110Z,17.23
2023-05-01T09:53:56.913Z,19.75
2023-05-01T09:56:24.970Z,18.75
2023-05-01T09:58:53.630Z,25.80
2023-05-01T10:01:36.232Z,18.08
2023-05-01T10:04:04.116Z,26.40
2023-05-01T10:06:33.290Z,18.38
2023-05-01T10:09:01.051Z,22.02
2023-05-01T10:11:28.716Z,23.52
2023-05-01T10:14:06.582Z,25.70
2023-05-01T10:16:35.887Z,20.10
2023-05-01T10:19:04.542Z,23.08
2023-05-01T10:21:34.398Z,20.40
2023-05-01T10:24:04.303Z,20.27
2023-05-01T10:26:32.562Z,22.35
2023-05-01T10:29:01.726Z,21.75
2023-05-01T10:31:30.203Z,24.83
2023-05-01T10:33:58.169Z,23.95
2023-05-01T10:36:26.839Z,22.63
2023-05-01T10:38:55.997Z,19.73
2023-05-01T10:41:53.792Z,24.02
2023-05-01T10:44:21.748Z,22.90
2023-05-01T10:46:49.541Z,21.35
2023-05-01T10:49:19.477Z,22.88
2023-05-01T10:52:00.290Z,23.30
2023-05-01T10:54:29.875Z,22.20
2023-05-01T10:56:58.632Z,20.13
2023-05-01T10:59:26.354Z,22.77
2023-05-01T11:01:54.326Z,18.98
2023-05-01T11:04:42.117Z,19.45
2023-05-01T11:07:18.060Z,17.98
2023-05-01T11:09:49.112Z,19.83
2023-05-01T11:12:17.587Z,18.30
2023-05-01T11:15:05.897Z,18.85
2023-05-01T11:17:46.473Z,20.10
2023-05-01T11:20:14.756Z,22.83
2023-05-01T11:22:47.379Z,19.73
2023-05-01T11:25:22.791Z,18.40
2023-05-01T11:27:52.260Z,17.73
2023-05-01T11:30:20.318Z,19.95
2023-05-01T11:32:49.332Z,24.23
2023-05-01T11:35:18.253Z,22.52
2023-05-01T11:37:46.292Z,19.02
2023-05-01T11:40:22.116Z,19.00
2023-05-01T11:43:05.288Z,21.67
2023-05-01T11:45:33.776Z,23.55
2023-05-01T11:48:04.495Z,16.20
2023-05-01T11:50:33.299Z,20.77
2023-05-01T11:53:00.967Z,17.17
2023-05-01T11:55:32.452Z,17.23
2023-05-01T11:58:00.230Z,18.08
2023-05-01T12:00:29.968Z,19.52
2023-05-01T12:03:01.638Z,24.92
2023-05-01T12:05:30.487Z,26.08
2023-05-01T12:08:23.391Z,21.75
2023-05-01T12:10:52.066Z,23.63
2023-05-01T12:13:20.165Z,24.08
2023-05-01T12:15:49.751Z,22.02
2023-05-01T12:18:18.196Z,17.80
2023-05-01T12:20:47.294Z,18.08
2023-05-01T12:23:16.467Z,18.92
2023-05-01T12:25:45.555Z,17.80
2023-05-01T12:28:15.116Z,18.27
2023-05-01T12:30:45.458Z,16.60
2023-05-01T12:33:15.046Z,19.05
2023-05-01T12:35:45.382Z,19.23
2023-05-01T12:38:14.211Z,21.13
2023-05-01T12:40:51.994Z,16.38
2023-05-01T12:43:20.430Z,20.58
2023-05-01T12:45:50.757Z,20.67
2023-05-01T12:48:20.247Z,21.08
2023-05-01T12:50:49.821Z,18.52
2023-05-01T12:53:18.501Z,17.08
2023-05-01T12:55:47.809Z,14.57
2023-05-01T12:58:16.509Z,14.57
2023-05-01T13:00:49.927Z,15.13
2023-05-01T13:03:21.310Z,15.90
2023-05-01T13:05:53.608Z,15.02
2023-05-01T13:08:31.189Z,17.42
2023-05-01T13:10:59.698Z,19.83
2023-05-01T13:13:28.449Z,22.20
2023-05-01T13:16:05.788Z,21.60
2023-05-01T13:18:44.578Z,21.33
2023-05-01T13:21:14.753Z,15.95
2023-05-01T13:23:42.712Z,18.75
2023-05-01T13:26:10.624Z,19.88
2023-05-01T13:28:45.077Z,18.63
2023-05-01T13:31:14.485Z,19.58
2023-05-01T13:33:43.833Z,19.38
2023-05-01T13:36:24.421Z,16.48
2023-05-01T13:38:54.529Z,16.60
2023-05-01T13:41:22.839Z,16.60
2023-05-01T13:43:50.984Z,17.35
2023-05-01T13:46:19.430Z,16.80
2023-05-01T13:48:49.300Z,19.70
2023-05-01T13:51:21.351Z,17.77
2023-05-01T13:53:49.198Z,21.55
2023-05-01T13:56:17.113Z,18.20
2023-05-01T13:58:44.840Z,16.00
2023-05-01T14:01:16.294Z,15.40
2023-05-01T14:03:44.697Z,18.23
2023-05-01T14:06:15.149Z,20.33
2023-05-01T14:08:43.177Z,19.38
2023-05-01T14:11:12.788Z,18.25
2023-05-01T14:13:41.530Z,23.38
2023-05-01T14:16:11.006Z,17.27
2023-05-01T14:18:44.430Z,15.90
2023-05-01T14:21:14.723Z,13.35
2023-05-01T14:23:43.324Z,13.73
2023-05-01T14:26:12.323Z,17.08
2023-05-01T14:28:42.545Z,15.77
2023-05-01T14:31:10.401Z,17.50
2023-05-01T14:33:42.487Z,13.90
2023-05-01T14:36:10.206Z,12.70
2023-05-01T14:38:40.647Z,9.43
2023-05-01T14:41:10.016Z,16.75
2023-05-01T14:43:42.027Z,16.95
2023-05-01T14:46:09.793Z,13.50
2023-05-01T14:48:38.107Z,13.63
2023-05-01T14:51:06.925Z,12.60
2023-05-01T14:53:34.862Z,11.43
2023-05-01T14:56:03.869Z,10.55
2023-05-01T14:58:31.904Z,12.07
2023-05-01T15:00:59.516Z,10.13
2023-05-01T15:03:27.309Z,11.85
2023-05-01T15:05:56.816Z,10.88
2023-05-01T15:08:24.695Z,8.40
2023-05-01T15:10:53.457Z,7.07
2023-05-01T15:13:22.537Z,11.80
2023-05-01T15:15:51.644Z,8.90
2023-05-01T15:18:19.402Z,9.88
2023-05-01T15:20:47.442Z,7.93
2023-05-01T15:23:15.199Z,10.30
2023-05-01T15:25:44.173Z,10.77
2023-05-01T15:28:12.042Z,9.30
2023-05-01T15:30:44.942Z,9.25
2023-05-01T15:33:12.775Z,11.55
2023-05-01T15:35:40.505Z,9.02
2023-05-01T15:38:08.167Z,10.30
2023-05-01T15:40:36.003Z,8.70
2023-05-01T15:43:05.456Z,9.65
2023-05-01T15:45:37.739Z,9.93
2023-05-01T15:48:07.907Z,9.18
2023-05-01T15:50:35.999Z,9.95
2023-05-01T15:53:03.671Z,7.38
2023-05-01T15:55:32.409Z,8.98
2023-05-01T15:58:00.061Z,9.38
2023-05-01T16:00:27.706Z,7.95
2023-05-01T16:02:55.762Z,8.88
2023-05-01T16:05:25.047Z,8.88
2023-05-01T16:07:54.894Z,10.88
2023-05-01T16:10:22.987Z,6.07
2023-05-01T16:12:51.586Z,8.93
2023-05-01T16:15:19.511Z,10.85
2023-05-01T16:17:51.551Z,8.18
2023-05-01T16:20:19.277Z,8.57
2023-05-01T16:22:48.716Z,8.43
2023-05-01T16:25:16.757Z,6.00
2023-05-01T16:27:46.288Z,5.38
2023-05-01T16:30:15.372Z,7.47
2023-05-01T16:32:43.732Z,6.38
2023-05-01T16:35:12.175Z,7.20
2023-05-01T16:37:40.598Z,9.63
2023-05-01T16:40:10.352Z,9.65
2023-05-01T16:42:38.836Z,7.93
2023-05-01T16:45:08.801Z,10.00
2023-05-01T16:47:36.879Z,7.78
2023-05-01T16:50:08.634Z,8.00
2023-05-01T16:52:41.869Z,10.60
2023-05-01T16:55:11.356Z,8.13
2023-05-01T16:57:38.989Z,9.85
2023-05-01T17:00:09.249Z,11.02
2023-05-01T17:02:37.094Z,7.05
2023-05-01T17:05:05.406Z,9.55
2023-05-01T17:07:33.274Z,9.35
2023-05-01T17:10:01.082Z,12.25
2023-05-01T17:12:30.237Z,10.45
2023-05-01T17:14:57.996Z,13.18
2023-05-01T17:17:26.221Z,10.38
2023-05-01T17:19:53.894Z,8.52
2023-05-01T17:22:23.543Z,8.68
2023-05-01T17:24:51.694Z,9.77
2023-05-01T17:27:19.328Z,11.77
2023-05-01T17:29:48.391Z,11.07
2023-05-01T17:32:25.801Z,7.32
2023-05-01T17:34:57.795Z,9.70
2023-05-01T17:37:25.615Z,12.40
2023-05-01T17:39:53.225Z,11.18
2023-05-01T17:42:20.906Z,8.85
2023-05-01T17:44:49.917Z,12.75
2023-05-01T17:47:19.394Z,10.02
2023-05-01T17:49:47.014Z,12.30
2023-05-01T17:52:14.688Z,13.23
2023-05-01T17:54:42.399Z,12.88
2023-05-01T17:57:10.357Z,13.43
2023-05-01T17:59:38.051Z,13.35
2023-05-01T18:02:07.316Z,11.95
2023-05-01T18:04:38.689Z,12.85
2023-05-01T18:07:06.436Z,10.73
2023-05-01T18:09:34.021Z,12.82
2023-05-01T18:12:02.273Z,13.20
2023-05-01T18:14:30.205Z,12.05
2023-05-01T18:16:58.011Z,12.07
2023-05-01T18:19:27.587Z,15.65
2023-05-01T18:21:55.252Z,10.77
2023-05-01T18:24:22.899Z,11.30
2023-05-01T18:26:50.708Z,12.88
2023-05-01T18:29:18.469Z,9.35
2023-05-01T18:31:46.138Z,15.05
2023-05-01T18:34:13.810Z,12.68
2023-05-01T18:36:42.815Z,13.20
2023-05-01T18:39:10.458Z,13.82
2023-05-01T18:41:38.149Z,13.13
2023-05-01T18:44:06.336Z,15.70
2023-05-01T18:46:34.229Z,8.63
2023-05-01T18:49:02.071Z,12.93
2023-05-01T18:51:29.748Z,10.50
2023-05-01T18:53:59.037Z,9.57
2023-05-01T18:56:27.974Z,11.70
2023-05-01T18:58:56.255Z,10.63
2023-05-01T19:01:24.588Z,18.20
2023-05-01T19:03:52.663Z,13.25
2023-05-01T19:06:20.394Z,11.75
2023-05-01T19:08:48.206Z,14.85
2023-05-01T19:11:17.245Z,15.82
2023-05-01T19:13:45.000Z,15.48
2023-05-01T19:16:12.860Z,10.27
2023-05-01T19:18:40.558Z,8.93
2023-05-01T19:21:08.184Z,9.30
2023-05-01T19:23:37.526Z,12.30
2023-05-01T19:26:06.400Z,8.20
2023-05-01T19:28:37.627Z,9.68
2023-05-01T19:31:07.767Z,12.02
2023-05-01T19:33:35.446Z,12.82
2023-05-01T19:36:03.224Z,8.63
2023-05-01T19:38:31.075Z,14.63
2023-05-01T19:40:58.694Z,11.50
2023-05-01T19:43:29.327Z,6.82
2023-05-01T19:46:11.802Z,11.30
2023-05-01T19:48:39.685Z,16.63
2023-05-01T19:51:07.342Z,11.95
2023-05-01T19:53:35.416Z,14.65
2023-05-01T19:56:03.211Z,8.68
2023-05-01T19:58:30.865Z,9.82
2023-05-01T20:01:02.337Z,12.80
2023-05-01T20:03:31.492Z,7.45
2023-05-01T20:06:39.789Z,11.05
2023-05-01T20:09:07.509Z,13.23
2023-05-01T20:11:35.333Z,12.15
2023-05-01T20:14:04.512Z,11.20
2023-05-01T20:16:32.172Z,13.00
2023-05-01T20:19:01.473Z,13.40
2023-05-01T20:21:29.144Z,11.43
2023-05-01T20:23:58.375Z,13.52
2023-05-01T20:26:26.098Z,12.85
2023-05-01T20:28:53.933Z,14.02
2023-05-01T20:31:21.702Z,17.95
2023-05-01T20:33:49.410Z,19.42
2023-05-01T20:36:18.373Z,18.70
2023-05-01T20:38:47.975Z,13.07
2023-05-01T20:41:16.197Z,14.70
2023-05-01T20:43:44.228Z,18.00
2023-05-01T20:46:12.020Z,12.80
2023-05-01T20:48:39.897Z,14.05
2023-05-01T20:51:07.521Z,14.23
2023-05-01T20:53:36.492Z,19.00
2023-05-01T20:56:04.188Z,16.33
2023-05-01T20:58:31.814Z,16.13
2023-05-01T21:01:00.391Z,15.18
2023-05-01T21:03:28.235Z,15.70
2023-05-01T21:05:58.820Z,16.98
2023-05-01T21:08:26.673Z,19.45
2023-05-01T21:10:56.493Z,17.25
2023-05-01T21:13:24.943Z,21.63
2023-05-01T21:15:53.108Z,18.13
2023-05-01T21:18:21.330Z,20.83
2023-05-01T21:20:49.041Z,16.63
2023-05-01T21:23:17.157Z,17.05
2023-05-01T21:25:45.048Z,16.13
2023-05-01T21:28:16.100Z,18.65
2023-05-01T21:30:43.884Z,17.08
2023-05-01T21:33:13.366Z,17.60
2023-05-01T21:35:42.889Z,18.30
2023-05-01T21:38:10.630Z,13.75
2023-05-01T21:40:41.284Z,15.38
2023-05-01T21:43:09.435Z,21.85
2023-05-01T21:45:40.567Z,16.23
2023-05-01T21:48:09.523Z,18.00
2023-05-01T21:50:38.209Z,21.88
2023-05-01T21:53:07.116Z,23.38
2023-05-01T21:55:34.801Z,17.73
2023-05-01T21:58:02.942Z,23.45
2023-05-01T22:00:31.761Z,21.63
2023-05-01T22:03:01.048Z,26.63
2023-05-01T22:05:31.104Z,17.98
2023-05-01T22:07:59.331Z,20.58
2023-05-01T22:10:28.647Z,24.42
2023-05-01T22:12:56.411Z,24.73
2023-05-01T22:15:24.146Z,21.48
2023-05-01T22:17:51.830Z,27.40
2023-05-01T22:20:20.843Z,21.17
2023-05-01T22:22:48.500Z,24.80
2023-05-01T22:25:16.698Z,22.73
2023-05-01T22:27:44.304Z,19.67
2023-05-01T22:30:12.689Z,24.67
2023-05-01T22:32:40.412Z,26.35
2023-05-01T22:35:08.925Z,21.20
2023-05-01T22:37:38.017Z,21.33
2023-05-01T22:40:06.250Z,28.60
2023-05-01T22:42:33.875Z,19.48
2023-05-01T22:45:01.563Z,25.13
2023-05-01T22:47:29.325Z,24.13
2023-05-01T22:49:57.243Z,24.58
2023-05-01T22:52:25.245Z,27.52
2023-05-01T22:54:56.064Z,28.20
2023-05-01T22:57:32.789Z,23.90
2023-05-01T23:00:00.954Z,19.35
2023-05-01T23:02:28.934Z,24.23
2023-05-01T23:04:56.614Z,22.38
2023-05-01T23:07:24.415Z,28.75
2023-05-01T23:09:52.179Z,24.15
2023-05-01T23:12:23.353Z,27.95
2023-05-01T23:14:51.095Z,25.20
2023-05-01T23:17:18.707Z,21.63
2023-05-01T23:19:47.502Z,17.70
2023-05-01T23:22:15.300Z,23.95
2023-05-01T23:24:44.472Z,24.85
2023-05-01T23:27:13.446Z,24.85
2023-05-01T23:29:45.002Z,22.15
2023-05-01T23:32:18.398Z,25.02
2023-05-01T23:34:46.243Z,31.50
2023-05-01T23:37:13.978Z,23.67
2023-05-01T23:39:42.832Z,27.55
2023-05-01T23:42:10.502Z,23.48
2023-05-01T23:44:38.141Z,26.00
2023-05-01T23:47:07.209Z,22.20
2023-05-01T23:49:36.753Z,23.30
2023-05-01T23:52:04.442Z,25.65
2023-05-01T23:54:32.209Z,28.63
2023-05-01T23:57:00.778Z,20.15
2023-05-01T23:59:28.470Z,26.10
